Turneffe Island, Belize
Current Conditions -  °F | °C
As of 2:00 PM on Wednesday 26 Nov 2014 (Local Time) from MZBZ Reporting Station
Broken Clouds Broken Clouds  
Wind Chill: 81°   Ceiling: 4500
Heat Index: 83°   Visibility: 6mi
Dew Point: 66°   Wind: 15mph
Humidity: 61%   Direction: 340°NNW
Pressure: 30.07"   Gusts: NA
Location:  17.18°N, 87.57°W
Report Text: MZBZ 262000Z 34013KT 9999 FEW020 BKN045 27/19 A3007 Q1018 NOSIG
Loading
Personal Weather Stations






























Interactive Weather Map New forecast layout! Learn more

10-Day Weather Forecast

Advertisements
Track Severe Weather on mobile